sensor_id;sensor_type;location;lat;lon;timestamp;temperature;humidity
6956;DHT22;50345;51.136;16.886;2023-07-13T05:17:21;17.60;99.90
6956;DHT22;50345;51.136;16.886;2023-07-13T05:19:46;17.60;99.90
6956;DHT22;50345;51.136;16.886;2023-07-13T05:22:12;17.60;99.90
6956;DHT22;50345;51.136;16.886;2023-07-13T05:24:38;17.70;99.90
6956;DHT22;50345;51.136;16.886;2023-07-13T05:27:04;17.70;99.90
6956;DHT22;50345;51.136;16.886;2023-07-13T05:29:29;17.70;99.90
6956;DHT22;50345;51.136;16.886;2023-07-13T05:31:55;17.80;99.90
6956;DHT22;50345;51.136;16.886;2023-07-13T05:34:21;17.80;99.90
6956;DHT22;50345;51.136;16.886;2023-07-13T05:36:46;17.80;99.90
6956;DHT22;50345;51.136;16.886;2023-07-13T05:39:12;17.90;99.90
6956;DHT22;50345;51.136;16.886;2023-07-13T05:41:38;17.90;99.90
6956;DHT22;50345;51.136;16.886;2023-07-13T05:44:03;17.90;99.90
6956;DHT22;50345;51.136;16.886;2023-07-13T05:46:29;17.90;99.90
6956;DHT22;50345;51.136;16.886;2023-07-13T05:51:22;18.00;99.90
6956;DHT22;50345;51.136;16.886;2023-07-13T05:53:47;18.00;99.90
6956;DHT22;50345;51.136;16.886;2023-07-13T05:56:13;18.10;99.90
6956;DHT22;50345;51.136;16.886;2023-07-13T05:58:38;18.20;99.90
6956;DHT22;50345;51.136;16.886;2023-07-13T06:08:26;18.80;99.90
6956;DHT22;50345;51.136;16.886;2023-07-13T06:10:52;18.90;99.90
6956;DHT22;50345;51.136;16.886;2023-07-13T06:13:17;19.00;99.90
6956;DHT22;50345;51.136;16.886;2023-07-13T06:15:50;19.00;99.90
6956;DHT22;50345;51.136;16.886;2023-07-13T06:18:16;19.10;99.90
6956;DHT22;50345;51.136;16.886;2023-07-13T06:20:42;19.30;99.90
6956;DHT22;50345;51.136;16.886;2023-07-13T06:23:07;19.40;99.90
6956;DHT22;50345;51.136;16.886;2023-07-13T06:25:33;19.60;99.90
6956;DHT22;50345;51.136;16.886;2023-07-13T06:27:58;19.80;99.90
6956;DHT22;50345;51.136;16.886;2023-07-13T06:30:24;19.90;99.90
6956;DHT22;50345;51.136;16.886;2023-07-13T06:32:50;20.10;99.90
6956;DHT22;50345;51.136;16.886;2023-07-13T06:35:16;20.10;99.90
6956;DHT22;50345;51.136;16.886;2023-07-13T06:37:41;20.10;99.90
6956;DHT22;50345;51.136;16.886;2023-07-13T06:40:07;19.90;99.90
6956;DHT22;50345;51.136;16.886;2023-07-13T06:42:33;19.70;99.90
6956;DHT22;50345;51.136;16.886;2023-07-13T06:44:59;19.50;99.90
6956;DHT22;50345;51.136;16.886;2023-07-13T06:47:24;19.20;99.90
6956;DHT22;50345;51.136;16.886;2023-07-13T06:49:50;19.10;99.90
6956;DHT22;50345;51.136;16.886;2023-07-13T06:52:15;18.90;99.90
6956;DHT22;50345;51.136;16.886;2023-07-13T06:54:41;18.80;99.90
6956;DHT22;50345;51.136;16.886;2023-07-13T06:57:06;18.60;99.90
6956;DHT22;50345;51.136;16.886;2023-07-13T06:59:32;18.60;99.90
6956;DHT22;50345;51.136;16.886;2023-07-13T07:01:58;18.40;99.90
6956;DHT22;50345;51.136;16.886;2023-07-13T07:04:24;17.90;99.90
6956;DHT22;50345;51.136;16.886;2023-07-13T07:06:49;18.70;99.90
6956;DHT22;50345;51.136;16.886;2023-07-13T07:09:15;18.20;99.90
6956;DHT22;50345;51.136;16.886;2023-07-13T07:11:42;18.00;99.90
6956;DHT22;50345;51.136;16.886;2023-07-13T07:14:08;18.10;99.90
6956;DHT22;50345;51.136;16.886;2023-07-13T07:16:34;18.00;99.90
6956;DHT22;50345;51.136;16.886;2023-07-13T07:18:59;17.90;99.90
6956;DHT22;50345;51.136;16.886;2023-07-13T07:21:25;17.90;99.90
6956;DHT22;50345;51.136;16.886;2023-07-13T07:23:51;17.90;99.90
6956;DHT22;50345;51.136;16.886;2023-07-13T07:26:17;18.00;99.90
6956;DHT22;50345;51.136;16.886;2023-07-13T07:28:43;18.00;99.90
6956;DHT22;50345;51.136;16.886;2023-07-13T07:31:09;17.90;99.90
6956;DHT22;50345;51.136;16.886;2023-07-13T07:33:35;17.80;99.90
6956;DHT22;50345;51.136;16.886;2023-07-13T07:38:26;17.90;99.90
6956;DHT22;50345;51.136;16.886;2023-07-13T07:40:52;18.40;99.90
6956;DHT22;50345;51.136;16.886;2023-07-13T13:37:20;43.60;28.50
6956;DHT22;50345;51.136;16.886;2023-07-13T13:39:47;43.60;27.80
6956;DHT22;50345;51.136;16.886;2023-07-13T13:42:16;44.00;27.30
6956;DHT22;50345;51.136;16.886;2023-07-13T13:44:41;44.00;27.70
6956;DHT22;50345;51.136;16.886;2023-07-13T13:47:26;44.40;26.80
6956;DHT22;50345;51.136;16.886;2023-07-13T13:49:53;44.80;27.50
6956;DHT22;50345;51.136;16.886;2023-07-13T14:16:57;44.10;25.20
6956;DHT22;50345;51.136;16.886;2023-07-13T14:19:23;43.80;26.50
6956;DHT22;50345;51.136;16.886;2023-07-13T14:21:49;44.20;26.40
6956;DHT22;50345;51.136;16.886;2023-07-13T14:24:15;44.90;28.80
6956;DHT22;50345;51.136;16.886;2023-07-13T14:26:41;44.90;29.50
6956;DHT22;50345;51.136;16.886;2023-07-13T14:29:18;44.70;30.10
6956;DHT22;50345;51.136;16.886;2023-07-13T14:31:45;45.70;30.10
6956;DHT22;50345;51.136;16.886;2023-07-13T14:34:11;46.30;29.30
6956;DHT22;50345;51.136;16.886;2023-07-13T14:36:42;47.00;28.60
6956;DHT22;50345;51.136;16.886;2023-07-13T15:28:28;45.40;27.10
6956;DHT22;50345;51.136;16.886;2023-07-13T15:40:49;48.70;24.00
6956;DHT22;50345;51.136;16.886;2023-07-13T15:43:19;48.70;24.40
6956;DHT22;50345;51.136;16.886;2023-07-13T15:45:45;48.90;24.70
6956;DHT22;50345;51.136;16.886;2023-07-13T15:50:45;49.10;23.50
6956;DHT22;50345;51.136;16.886;2023-07-13T15:53:14;49.20;23.70
6956;DHT22;50345;51.136;16.886;2023-07-13T15:55:41;49.10;23.10
6956;DHT22;50345;51.136;16.886;2023-07-13T15:58:11;48.90;23.40
6956;DHT22;50345;51.136;16.886;2023-07-13T16:00:37;49.00;22.90
6956;DHT22;50345;51.136;16.886;2023-07-13T16:03:03;49.00;23.50
6956;DHT22;50345;51.136;16.886;2023-07-13T16:05:28;48.90;23.50
6956;DHT22;50345;51.136;16.886;2023-07-13T16:07:55;48.80;23.10
6956;DHT22;50345;51.136;16.886;2023-07-13T16:12:56;48.00;23.60
6956;DHT22;50345;51.136;16.886;2023-07-13T16:17:48;45.80;25.30
6956;DHT22;50345;51.136;16.886;2023-07-13T18:41:21;23.90;94.90
6956;DHT22;50345;51.136;16.886;2023-07-13T18:43:48;23.60;97.30
6956;DHT22;50345;51.136;16.886;2023-07-13T18:46:24;22.80;99.90
6956;DHT22;50345;51.136;16.886;2023-07-13T18:51:17;21.30;99.90
6956;DHT22;50345;51.136;16.886;2023-07-13T18:53:43;21.00;99.90
6956;DHT22;50345;51.136;16.886;2023-07-13T19:01:31;20.30;99.90
6956;DHT22;50345;51.136;16.886;2023-07-13T19:04:01;20.30;99.90
6956;DHT22;50345;51.136;16.886;2023-07-13T19:06:28;20.20;99.90
6956;DHT22;50345;51.136;16.886;2023-07-13T19:08:54;20.20;99.90
6956;DHT22;50345;51.136;16.886;2023-07-13T19:11:20;20.20;99.90
6956;DHT22;50345;51.136;16.886;2023-07-13T19:13:48;20.10;99.90
6956;DHT22;50345;51.136;16.886;2023-07-13T19:16:17;20.20;99.90
6956;DHT22;50345;51.136;16.886;2023-07-13T19:21:23;20.10;99.90
6956;DHT22;50345;51.136;16.886;2023-07-13T19:23:50;20.00;99.90
6956;DHT22;50345;51.136;16.886;2023-07-13T19:26:28;20.00;99.90
6956;DHT22;50345;51.136;16.886;2023-07-13T19:28:56;20.00;99.90
6956;DHT22;50345;51.136;16.886;2023-07-13T19:31:31;20.00;99.90
6956;DHT22;50345;51.136;16.886;2023-07-13T19:34:20;19.90;99.90
6956;DHT22;50345;51.136;16.886;2023-07-13T19:36:46;19.90;99.90
6956;DHT22;50345;51.136;16.886;2023-07-13T19:39:34;19.90;99.90
6956;DHT22;50345;51.136;16.886;2023-07-13T19:42:04;19.90;99.90
6956;DHT22;50345;51.136;16.886;2023-07-13T19:44:33;19.80;99.90
6956;DHT22;50345;51.136;16.886;2023-07-13T19:46:59;19.80;99.90
6956;DHT22;50345;51.136;16.886;2023-07-13T19:49:25;19.80;99.90
6956;DHT22;50345;51.136;16.886;2023-07-13T19:51:51;19.80;99.90
6956;DHT22;50345;51.136;16.886;2023-07-13T19:56:43;19.50;99.90
6956;DHT22;50345;51.136;16.886;2023-07-13T19:59:23;19.20;99.90
6956;DHT22;50345;51.136;16.886;2023-07-13T20:01:49;19.10;99.90
6956;DHT22;50345;51.136;16.886;2023-07-13T20:04:14;19.10;99.90
6956;DHT22;50345;51.136;16.886;2023-07-13T20:06:40;19.10;99.90
6956;DHT22;50345;51.136;16.886;2023-07-13T20:09:15;19.10;99.90
6956;DHT22;50345;51.136;16.886;2023-07-13T20:11:41;19.10;99.90
6956;DHT22;50345;51.136;16.886;2023-07-13T20:14:17;19.10;99.90
6956;DHT22;50345;51.136;16.886;2023-07-13T20:16:43;19.10;99.90
6956;DHT22;50345;51.136;16.886;2023-07-13T20:19:13;19.00;99.90
6956;DHT22;50345;51.136;16.886;2023-07-13T20:21:39;19.00;99.90
6956;DHT22;50345;51.136;16.886;2023-07-13T20:24:17;19.00;99.90
6956;DHT22;50345;51.136;16.886;2023-07-13T20:26:43;19.00;99.90
6956;DHT22;50345;51.136;16.886;2023-07-13T20:29:11;19.00;99.90
6956;DHT22;50345;51.136;16.886;2023-07-13T20:31:37;19.00;99.90
6956;DHT22;50345;51.136;16.886;2023-07-13T20:34:03;18.90;99.90
6956;DHT22;50345;51.136;16.886;2023-07-13T20:36:30;18.90;99.90
6956;DHT22;50345;51.136;16.886;2023-07-13T20:38:56;18.80;99.90
6956;DHT22;50345;51.136;16.886;2023-07-13T20:41:22;18.80;99.90
6956;DHT22;50345;51.136;16.886;2023-07-13T20:43:48;18.80;99.90
6956;DHT22;50345;51.136;16.886;2023-07-13T20:46:16;18.70;99.90
6956;DHT22;50345;51.136;16.886;2023-07-13T20:48:44;18.60;99.90
6956;DHT22;50345;51.136;16.886;2023-07-13T20:51:14;18.60;99.90
6956;DHT22;50345;51.136;16.886;2023-07-13T20:53:42;18.50;99.90
6956;DHT22;50345;51.136;16.886;2023-07-13T20:56:13;18.40;99.90
6956;DHT22;50345;51.136;16.886;2023-07-13T20:58:39;18.40;99.90
6956;DHT22;50345;51.136;16.886;2023-07-13T21:01:04;18.30;99.90
6956;DHT22;50345;51.136;16.886;2023-07-13T21:03:31;18.30;99.90
6956;DHT22;50345;51.136;16.886;2023-07-13T21:06:07;18.20;99.90
6956;DHT22;50345;51.136;16.886;2023-07-13T21:08:36;18.20;99.90
6956;DHT22;50345;51.136;16.886;2023-07-13T21:11:02;18.20;99.90
6956;DHT22;50345;51.136;16.886;2023-07-13T21:13:28;18.10;99.90
6956;DHT22;50345;51.136;16.886;2023-07-13T21:15:53;18.20;99.90
6956;DHT22;50345;51.136;16.886;2023-07-13T21:18:24;18.20;99.90
6956;DHT22;50345;51.136;16.886;2023-07-13T21:20:52;18.20;99.90
6956;DHT22;50345;51.136;16.886;2023-07-13T21:23:25;18.20;99.90
6956;DHT22;50345;51.136;16.886;2023-07-13T21:25:52;18.10;99.90
6956;DHT22;50345;51.136;16.886;2023-07-13T21:28:17;18.10;99.90
6956;DHT22;50345;51.136;16.886;2023-07-13T21:30:43;18.10;99.90
6956;DHT22;50345;51.136;16.886;2023-07-13T21:33:12;18.00;99.90
6956;DHT22;50345;51.136;16.886;2023-07-13T21:35:41;18.00;99.90
6956;DHT22;50345;51.136;16.886;2023-07-13T21:38:25;17.90;99.90
6956;DHT22;50345;51.136;16.886;2023-07-13T21:40:58;17.80;99.90
6956;DHT22;50345;51.136;16.886;2023-07-13T21:43:24;17.80;99.90
6956;DHT22;50345;51.136;16.886;2023-07-13T21:45:50;17.70;99.90
6956;DHT22;50345;51.136;16.886;2023-07-13T21:48:16;17.70;99.90
6956;DHT22;50345;51.136;16.886;2023-07-13T21:50:48;17.70;99.90
6956;DHT22;50345;51.136;16.886;2023-07-13T21:53:27;17.60;99.90
6956;DHT22;50345;51.136;16.886;2023-07-13T21:55:59;17.60;99.90
6956;DHT22;50345;51.136;16.886;2023-07-13T21:58:28;17.60;99.90
6956;DHT22;50345;51.136;16.886;2023-07-13T22:00:54;17.50;99.90
6956;DHT22;50345;51.136;16.886;2023-07-13T22:03:24;17.50;99.90
6956;DHT22;50345;51.136;16.886;2023-07-13T22:10:44;17.40;99.90
6956;DHT22;50345;51.136;16.886;2023-07-13T22:13:10;17.40;99.90
6956;DHT22;50345;51.136;16.886;2023-07-13T22:15:36;17.20;99.90
6956;DHT22;50345;51.136;16.886;2023-07-13T22:18:09;17.30;99.90
6956;DHT22;50345;51.136;16.886;2023-07-13T22:20:36;17.30;99.90
6956;DHT22;50345;51.136;16.886;2023-07-13T22:23:21;17.30;99.90
6956;DHT22;50345;51.136;16.886;2023-07-13T22:25:48;17.30;99.90
6956;DHT22;50345;51.136;16.886;2023-07-13T22:28:17;17.20;99.90
6956;DHT22;50345;51.136;16.886;2023-07-13T22:30:44;17.20;99.90
6956;DHT22;50345;51.136;16.886;2023-07-13T22:33:15;17.20;99.90
6956;DHT22;50345;51.136;16.886;2023-07-13T22:38:13;17.20;99.90
6956;DHT22;50345;51.136;16.886;2023-07-13T22:40:39;17.20;99.90
6956;DHT22;50345;51.136;16.886;2023-07-13T22:43:21;17.20;99.90
6956;DHT22;50345;51.136;16.886;2023-07-13T22:48:20;17.10;99.90
6956;DHT22;50345;51.136;16.886;2023-07-13T22:50:46;17.10;99.90
6956;DHT22;50345;51.136;16.886;2023-07-13T22:58:06;17.10;99.90
6956;DHT22;50345;51.136;16.886;2023-07-13T23:00:32;17.00;99.90
6956;DHT22;50345;51.136;16.886;2023-07-13T23:02:57;17.00;99.90
6956;DHT22;50345;51.136;16.886;2023-07-13T23:05:23;16.90;99.90
6956;DHT22;50345;51.136;16.886;2023-07-13T23:07:50;16.90;99.90
6956;DHT22;50345;51.136;16.886;2023-07-13T23:10:18;16.80;99.90
6956;DHT22;50345;51.136;16.886;2023-07-13T23:12:44;16.80;99.90
6956;DHT22;50345;51.136;16.886;2023-07-13T23:20:14;16.60;99.90
6956;DHT22;50345;51.136;16.886;2023-07-13T23:27:42;16.50;99.90
6956;DHT22;50345;51.136;16.886;2023-07-13T23:32:46;16.40;99.90
6956;DHT22;50345;51.136;16.886;2023-07-13T23:35:13;16.40;99.90
6956;DHT22;50345;51.136;16.886;2023-07-13T23:37:42;16.40;99.90
6956;DHT22;50345;51.136;16.886;2023-07-13T23:40:19;16.30;99.90
6956;DHT22;50345;51.136;16.886;2023-07-13T23:42:46;16.30;99.90
6956;DHT22;50345;51.136;16.886;2023-07-13T23:45:16;16.30;99.90
6956;DHT22;50345;51.136;16.886;2023-07-13T23:47:44;16.20;99.90
6956;DHT22;50345;51.136;16.886;2023-07-13T23:50:21;16.20;99.90
6956;DHT22;50345;51.136;16.886;2023-07-13T23:52:47;16.20;99.90
6956;DHT22;50345;51.136;16.886;2023-07-13T23:55:16;16.20;99.90
